createdAt,value
2019-05-23T00:01:49.107Z,4.60
2019-05-23T00:04:25.766Z,5.83
2019-05-23T00:06:55.102Z,5.20
2019-05-23T00:09:24.596Z,5.10
2019-05-23T00:12:12.149Z,6.73
2019-05-23T00:14:44.440Z,8.10
2019-05-23T00:17:18.900Z,5.23
2019-05-23T00:19:47.896Z,6.00
2019-05-23T00:22:17.322Z,6.20
2019-05-23T00:24:48.261Z,5.83
2019-05-23T00:27:18.047Z,5.57
2019-05-23T00:29:49.008Z,5.80
2019-05-23T00:32:19.745Z,5.97
2019-05-23T00:34:51.501Z,9.10
2019-05-23T00:37:23.039Z,5.53
2019-05-23T00:39:53.057Z,5.97
2019-05-23T00:42:22.672Z,6.40
2019-05-23T00:44:52.375Z,6.10
2019-05-23T00:47:22.811Z,5.97
2019-05-23T00:49:53.433Z,5.30
2019-05-23T00:52:22.438Z,7.60
2019-05-23T00:54:51.605Z,6.73
2019-05-23T00:57:21.361Z,7.87
2019-05-23T00:59:50.929Z,6.57
2019-05-23T01:02:19.843Z,6.50
2019-05-23T01:04:51.108Z,7.67
2019-05-23T01:07:21.012Z,6.33
2019-05-23T01:09:50.883Z,5.43
2019-05-23T01:12:21.336Z,6.87
2019-05-23T01:14:52.687Z,5.33
2019-05-23T01:17:22.401Z,7.07
2019-05-23T01:19:52.189Z,6.67
2019-05-23T01:22:21.285Z,5.93
2019-05-23T01:24:51.835Z,5.93
2019-05-23T01:27:21.545Z,6.13
2019-05-23T01:29:51.563Z,6.00
2019-05-23T01:32:25.162Z,5.93
2019-05-23T01:34:54.021Z,6.73
2019-05-23T01:37:23.265Z,7.63
2019-05-23T01:39:53.042Z,6.70
2019-05-23T01:42:23.572Z,6.60
2019-05-23T01:44:55.287Z,6.90
2019-05-23T01:47:24.221Z,6.37
2019-05-23T01:49:53.468Z,5.73
2019-05-23T01:52:25.408Z,6.10
2019-05-23T01:54:54.919Z,6.70
2019-05-23T01:57:23.971Z,6.23
2019-05-23T02:00:08.284Z,5.97
2019-05-23T02:02:24.235Z,6.90
2019-05-23T02:04:53.412Z,6.03
2019-05-23T02:07:22.712Z,6.43
2019-05-23T02:09:52.543Z,7.23
2019-05-23T02:12:22.132Z,6.53
2019-05-23T02:14:52.174Z,6.67
2019-05-23T02:17:21.796Z,8.00
2019-05-23T02:19:50.729Z,7.87
2019-05-23T02:22:20.481Z,7.20
2019-05-23T02:24:49.763Z,7.43
2019-05-23T02:27:18.936Z,8.03
2019-05-23T02:29:48.097Z,8.13
2019-05-23T02:32:18.188Z,7.20
2019-05-23T02:34:47.705Z,8.20
2019-05-23T02:37:33.785Z,8.90
2019-05-23T02:40:10.636Z,7.70
2019-05-23T02:42:44.238Z,7.37
2019-05-23T02:45:15.384Z,8.93
2019-05-23T02:47:50.954Z,9.47
2019-05-23T02:50:27.426Z,8.43
2019-05-23T02:52:57.989Z,8.07
2019-05-23T02:55:30.795Z,8.20
2019-05-23T02:58:05.728Z,11.50
2019-05-23T03:00:54.997Z,8.67
2019-05-23T03:03:28.390Z,8.20
2019-05-23T03:05:59.677Z,7.87
2019-05-23T03:08:31.403Z,7.00
2019-05-23T03:11:19.209Z,9.13
2019-05-23T03:13:48.371Z,7.67
2019-05-23T03:16:23.172Z,7.77
2019-05-23T03:18:56.082Z,8.53
2019-05-23T03:21:27.258Z,7.10
2019-05-23T03:23:57.829Z,7.87
2019-05-23T03:26:50.925Z,8.13
2019-05-23T03:29:21.620Z,9.17
2019-05-23T03:32:01.258Z,8.43
2019-05-23T03:34:34.675Z,8.93
2019-05-23T03:37:05.778Z,9.30
2019-05-23T03:39:34.723Z,9.37
2019-05-23T03:42:04.271Z,11.93
2019-05-23T03:44:34.085Z,9.43
2019-05-23T03:47:03.829Z,9.80
2019-05-23T03:49:34.478Z,8.97
2019-05-23T03:52:04.961Z,8.93
2019-05-23T03:54:33.734Z,10.27
2019-05-23T03:57:02.500Z,10.40
2019-05-23T03:59:38.668Z,10.37
2019-05-23T04:02:09.192Z,10.87
2019-05-23T04:04:39.694Z,10.30
2019-05-23T04:07:10.385Z,10.60
2019-05-23T04:09:39.427Z,10.50
2019-05-23T04:12:09.189Z,10.37
2019-05-23T04:14:38.868Z,11.10
2019-05-23T04:17:08.300Z,12.20
2019-05-23T04:19:37.643Z,11.57
2019-05-23T04:22:07.550Z,12.47
2019-05-23T04:24:37.196Z,12.83
2019-05-23T04:27:07.173Z,14.37
2019-05-23T04:29:36.357Z,13.90
2019-05-23T04:32:09.082Z,13.13
2019-05-23T04:34:37.643Z,13.80
2019-05-23T04:37:12.578Z,15.40
2019-05-23T04:39:41.726Z,12.27
2019-05-23T04:42:11.384Z,14.73
2019-05-23T04:44:44.044Z,15.13
2019-05-23T04:47:11.906Z,16.70
2019-05-23T04:49:40.681Z,15.63
2019-05-23T04:52:10.382Z,14.27
2019-05-23T04:54:39.822Z,15.60
2019-05-23T04:57:08.876Z,15.67
2019-05-23T04:59:38.075Z,15.27
2019-05-23T05:02:23.066Z,16.43
2019-05-23T05:04:38.513Z,18.87
2019-05-23T05:07:08.394Z,17.40
2019-05-23T05:09:37.878Z,21.47
2019-05-23T05:12:07.675Z,17.60
2019-05-23T05:14:36.841Z,17.90
2019-05-23T05:17:06.976Z,16.20
2019-05-23T05:19:35.828Z,22.37
2019-05-23T05:22:05.088Z,19.40
2019-05-23T05:24:33.873Z,18.57
2019-05-23T05:27:02.829Z,19.23
2019-05-23T05:29:31.644Z,17.63
2019-05-23T05:32:03.554Z,19.90
2019-05-23T05:34:31.257Z,25.30
2019-05-23T05:37:00.569Z,20.27
2019-05-23T05:39:30.130Z,27.33
2019-05-23T05:41:59.967Z,23.23
2019-05-23T05:44:29.046Z,22.93
2019-05-23T05:46:57.980Z,21.33
2019-05-23T05:49:28.945Z,20.60
2019-05-23T05:51:57.773Z,23.37
2019-05-23T05:54:26.916Z,21.53
2019-05-23T05:56:55.698Z,21.93
2019-05-23T05:59:24.516Z,22.33
2019-05-23T06:01:53.593Z,17.83
2019-05-23T06:04:22.369Z,27.43
2019-05-23T06:06:59.045Z,23.67
2019-05-23T06:09:32.480Z,21.37
2019-05-23T06:12:01.309Z,21.17
2019-05-23T06:14:30.162Z,23.30
2019-05-23T06:17:00.109Z,25.27
2019-05-23T06:19:28.968Z,22.70
2019-05-23T06:21:58.840Z,22.17
2019-05-23T06:24:42.564Z,21.40
2019-05-23T06:26:59.077Z,21.73
2019-05-23T06:29:28.711Z,21.10
2019-05-23T06:31:58.034Z,20.77
2019-05-23T06:34:27.078Z,23.37
2019-05-23T06:36:56.460Z,21.47
2019-05-23T06:39:25.477Z,22.57
2019-05-23T06:41:55.005Z,19.03
2019-05-23T06:44:23.897Z,19.77
2019-05-23T06:46:52.681Z,17.40
2019-05-23T06:49:21.460Z,17.60
2019-05-23T06:51:50.293Z,18.13
2019-05-23T06:54:19.154Z,18.50
2019-05-23T06:56:47.948Z,20.43
2019-05-23T06:59:17.038Z,16.40
2019-05-23T07:01:45.805Z,14.87
2019-05-23T07:04:15.154Z,15.07
2019-05-23T07:06:45.378Z,14.20
2019-05-23T07:09:17.253Z,13.60
2019-05-23T07:11:46.023Z,12.67
2019-05-23T07:14:15.835Z,11.13
2019-05-23T07:16:44.616Z,10.57
2019-05-23T07:19:14.089Z,12.40
2019-05-23T07:21:42.912Z,9.93
2019-05-23T07:24:12.160Z,12.07
2019-05-23T07:26:41.315Z,10.50
2019-05-23T07:29:12.382Z,11.00
2019-05-23T07:31:41.585Z,9.63
2019-05-23T07:34:10.488Z,7.93
2019-05-23T07:36:40.297Z,9.03
2019-05-23T07:39:11.595Z,8.37
2019-05-23T07:41:40.552Z,8.80
2019-05-23T07:44:10.020Z,6.97
2019-05-23T07:46:39.241Z,5.80
2019-05-23T07:49:08.339Z,6.03
2019-05-23T07:51:37.608Z,5.83
2019-05-23T07:54:14.499Z,6.70
2019-05-23T07:56:45.535Z,5.97
2019-05-23T07:59:14.277Z,4.77
2019-05-23T08:01:46.136Z,4.60
2019-05-23T08:04:21.733Z,3.97
2019-05-23T08:06:48.770Z,3.90
2019-05-23T08:09:18.400Z,4.53
2019-05-23T08:11:47.886Z,4.70
2019-05-23T08:14:17.016Z,3.40
2019-05-23T08:16:46.203Z,3.87
2019-05-23T08:19:19.290Z,3.70
2019-05-23T08:21:45.991Z,4.27
2019-05-23T08:24:15.222Z,3.73
2019-05-23T08:26:45.482Z,3.50
2019-05-23T08:29:29.479Z,4.90
2019-05-23T08:31:44.732Z,3.40
2019-05-23T08:34:14.124Z,2.83
2019-05-23T08:36:43.594Z,3.30
2019-05-23T08:39:12.534Z,5.47
2019-05-23T08:41:41.422Z,3.30
2019-05-23T08:44:11.563Z,2.90
2019-05-23T08:46:41.044Z,3.17
2019-05-23T08:49:10.349Z,4.07
2019-05-23T08:51:39.516Z,2.17
2019-05-23T08:54:08.568Z,2.70
2019-05-23T08:56:37.732Z,5.07
2019-05-23T08:59:09.108Z,3.57
2019-05-23T09:01:44.284Z,2.63
2019-05-23T09:04:13.649Z,2.37
2019-05-23T09:06:42.820Z,2.10
2019-05-23T09:09:28.327Z,2.03
2019-05-23T09:11:44.433Z,1.70
2019-05-23T09:14:13.305Z,2.67
2019-05-23T09:16:42.681Z,1.27
2019-05-23T09:19:11.697Z,1.50
2019-05-23T09:21:41.405Z,2.00
2019-05-23T09:24:10.913Z,1.73
2019-05-23T09:26:39.904Z,0.80
2019-05-23T09:29:10.022Z,2.23
2019-05-23T09:31:44.751Z,0.87
2019-05-23T09:34:13.947Z,4.03
2019-05-23T09:36:43.072Z,2.60
2019-05-23T09:39:13.675Z,1.77
2019-05-23T09:41:42.549Z,2.20
2019-05-23T09:44:11.454Z,1.83
2019-05-23T09:46:40.244Z,1.33
2019-05-23T09:49:11.359Z,2.03
2019-05-23T09:51:39.769Z,4.80
2019-05-23T09:54:08.530Z,3.07
2019-05-23T09:56:37.749Z,2.83
2019-05-23T09:59:06.538Z,1.00
2019-05-23T10:01:35.325Z,1.17
2019-05-23T10:04:04.500Z,1.00
2019-05-23T10:06:33.497Z,1.10
2019-05-23T10:09:02.443Z,0.90
2019-05-23T10:11:31.399Z,0.90
2019-05-23T10:14:01.215Z,1.27
2019-05-23T10:16:30.694Z,2.40
2019-05-23T10:19:00.630Z,4.50
2019-05-23T10:21:29.520Z,3.40
2019-05-23T10:23:58.411Z,1.77
2019-05-23T10:26:27.505Z,1.67
2019-05-23T10:28:56.406Z,1.60
2019-05-23T10:31:25.675Z,2.37
2019-05-23T10:33:54.813Z,2.53
2019-05-23T10:36:23.661Z,1.93
2019-05-23T10:38:52.573Z,4.53
2019-05-23T10:41:21.667Z,3.80
2019-05-23T10:43:50.444Z,2.83
2019-05-23T10:46:19.552Z,3.17
2019-05-23T10:48:48.441Z,3.97
2019-05-23T10:51:17.652Z,2.23
2019-05-23T10:53:46.632Z,3.00
2019-05-23T10:56:20.254Z,2.87
2019-05-23T10:58:46.547Z,2.40
2019-05-23T11:01:15.658Z,3.23
2019-05-23T11:03:44.928Z,5.07
2019-05-23T11:06:16.651Z,3.83
2019-05-23T11:08:44.894Z,2.33
2019-05-23T11:11:15.206Z,2.63
2019-05-23T11:13:45.525Z,2.13
2019-05-23T11:16:15.663Z,4.63
2019-05-23T11:18:44.932Z,5.70
2019-05-23T11:21:13.750Z,3.53
2019-05-23T11:23:44.174Z,4.87
2019-05-23T11:26:13.368Z,6.90
2019-05-23T11:28:42.776Z,3.50
2019-05-23T11:31:12.274Z,3.53
2019-05-23T11:33:41.183Z,5.07
2019-05-23T11:36:11.408Z,2.30
2019-05-23T11:38:40.637Z,2.30
2019-05-23T11:41:09.437Z,3.70
2019-05-23T11:43:39.695Z,2.53
2019-05-23T11:46:10.638Z,3.33
2019-05-23T11:48:39.501Z,3.20
2019-05-23T11:51:08.393Z,1.93
2019-05-23T11:53:37.593Z,2.60
2019-05-23T11:56:06.503Z,1.80
2019-05-23T11:58:35.701Z,1.63
2019-05-23T12:01:19.867Z,1.70
2019-05-23T12:03:42.388Z,1.90
2019-05-23T12:06:11.386Z,1.67
2019-05-23T12:08:40.271Z,3.70
2019-05-23T12:11:09.074Z,4.63
2019-05-23T12:13:37.800Z,2.50
2019-05-23T12:16:08.584Z,2.07
2019-05-23T12:18:40.526Z,4.33
2019-05-23T12:21:09.485Z,2.80
2019-05-23T12:23:40.166Z,4.47
2019-05-23T12:26:11.719Z,3.07
2019-05-23T12:28:40.481Z,4.30
2019-05-23T12:31:10.196Z,3.33
2019-05-23T12:33:39.212Z,3.13
2019-05-23T12:36:08.001Z,2.93
2019-05-23T12:38:37.022Z,3.13
2019-05-23T12:41:07.804Z,4.23
2019-05-23T12:43:36.824Z,3.50
2019-05-23T12:46:06.048Z,3.13
2019-05-23T12:48:45.456Z,3.33
2019-05-23T12:51:16.011Z,3.20
2019-05-23T12:53:45.134Z,3.60
2019-05-23T12:56:14.270Z,3.53
2019-05-23T12:58:43.987Z,2.90
2019-05-23T13:01:15.078Z,3.40
2019-05-23T13:03:44.753Z,3.10
2019-05-23T13:06:13.949Z,2.60
2019-05-23T13:08:43.311Z,3.43
2019-05-23T13:11:12.637Z,2.97
2019-05-23T13:13:41.521Z,2.77
2019-05-23T13:16:10.418Z,5.03
2019-05-23T13:18:39.513Z,2.93
2019-05-23T13:21:08.381Z,4.33
2019-05-23T13:23:37.909Z,3.03
2019-05-23T13:26:06.977Z,2.57
2019-05-23T13:28:36.103Z,2.40
2019-05-23T13:31:04.870Z,2.87
2019-05-23T13:33:34.156Z,3.17
2019-05-23T13:36:03.588Z,5.00
2019-05-23T13:38:32.991Z,3.17
2019-05-23T13:41:01.881Z,2.70
2019-05-23T13:43:30.975Z,2.97
2019-05-23T13:45:59.866Z,2.13
2019-05-23T13:48:28.933Z,3.47
2019-05-23T13:50:57.867Z,3.73
2019-05-23T13:53:26.724Z,3.73
2019-05-23T13:55:55.607Z,2.57
2019-05-23T13:58:25.018Z,2.80
2019-05-23T14:00:54.417Z,3.33
2019-05-23T14:03:23.203Z,2.50
2019-05-23T14:05:52.190Z,2.87
2019-05-23T14:08:21.516Z,3.60
2019-05-23T14:10:50.303Z,4.03
2019-05-23T14:13:19.335Z,5.70
2019-05-23T14:15:50.216Z,4.37
2019-05-23T14:18:20.867Z,3.00
2019-05-23T14:20:50.236Z,2.93
2019-05-23T14:23:26.840Z,1.93
2019-05-23T14:25:57.471Z,2.27
2019-05-23T14:28:26.748Z,4.67
2019-05-23T14:30:57.505Z,4.10
2019-05-23T14:33:31.623Z,3.60
2019-05-23T14:36:02.045Z,3.03
2019-05-23T14:38:32.438Z,3.77
2019-05-23T14:41:01.343Z,2.07
2019-05-23T14:43:30.250Z,2.20
2019-05-23T14:46:09.690Z,2.20
2019-05-23T14:48:50.660Z,1.67
2019-05-23T14:51:23.648Z,4.10
2019-05-23T14:53:54.178Z,3.57
2019-05-23T14:56:24.910Z,2.07
2019-05-23T14:58:54.033Z,1.97
2019-05-23T15:01:24.850Z,1.60
2019-05-23T15:03:54.345Z,1.30
2019-05-23T15:06:23.735Z,2.43
2019-05-23T15:08:52.533Z,2.93
2019-05-23T15:11:23.986Z,2.33
2019-05-23T15:13:52.981Z,1.80
2019-05-23T15:16:22.159Z,2.07
2019-05-23T15:18:50.921Z,2.70
2019-05-23T15:21:19.957Z,1.80
2019-05-23T15:23:48.826Z,2.50
2019-05-23T15:26:23.197Z,1.77
2019-05-23T15:28:48.374Z,2.90
2019-05-23T15:31:17.701Z,2.90
2019-05-23T15:33:46.759Z,2.13
2019-05-23T15:36:15.857Z,2.17
2019-05-23T15:38:44.748Z,2.13
2019-05-23T15:41:13.641Z,4.20
2019-05-23T15:43:42.632Z,2.93
2019-05-23T15:46:11.500Z,3.60
2019-05-23T15:48:40.720Z,4.27
2019-05-23T15:51:11.228Z,3.40
2019-05-23T15:53:44.851Z,3.20
2019-05-23T15:56:31.506Z,3.30
2019-05-23T15:59:01.912Z,3.83
2019-05-23T16:01:38.807Z,3.57
2019-05-23T16:04:09.204Z,3.07
2019-05-23T16:06:41.318Z,2.97
2019-05-23T16:09:27.663Z,4.00
2019-05-23T16:11:43.339Z,4.73
2019-05-23T16:14:12.837Z,4.30
2019-05-23T16:16:41.931Z,3.83
2019-05-23T16:19:10.722Z,3.20
2019-05-23T16:21:40.634Z,4.70
2019-05-23T16:24:10.240Z,3.43
2019-05-23T16:26:39.847Z,3.77
2019-05-23T16:29:10.153Z,4.20
2019-05-23T16:31:39.663Z,4.57
2019-05-23T16:34:08.645Z,4.60
2019-05-23T16:36:37.538Z,3.73
2019-05-23T16:39:08.168Z,4.70
2019-05-23T16:41:37.158Z,4.33
2019-05-23T16:44:06.818Z,3.83
2019-05-23T16:46:35.784Z,4.30
2019-05-23T16:49:04.879Z,4.60
2019-05-23T16:51:33.651Z,6.37
2019-05-23T16:54:03.358Z,4.13
2019-05-23T16:56:48.792Z,4.87
2019-05-23T16:59:19.331Z,6.60
2019-05-23T17:01:57.919Z,13.00
2019-05-23T17:04:34.065Z,6.00
2019-05-23T17:07:10.349Z,4.17
2019-05-23T17:10:07.403Z,4.27
2019-05-23T17:12:27.961Z,6.07
2019-05-23T17:15:07.640Z,4.57
2019-05-23T17:18:00.856Z,4.20
2019-05-23T17:20:25.696Z,4.47
2019-05-23T17:23:04.920Z,4.17
2019-05-23T17:25:50.642Z,3.47
2019-05-23T17:28:24.070Z,3.57
2019-05-23T17:30:54.544Z,4.10
2019-05-23T17:33:23.507Z,3.67
2019-05-23T17:35:52.394Z,4.10
2019-05-23T17:38:21.260Z,4.40
2019-05-23T17:40:50.482Z,2.93
2019-05-23T17:43:19.577Z,4.43
2019-05-23T17:45:48.469Z,4.13
2019-05-23T17:48:17.538Z,3.30
2019-05-23T17:50:47.308Z,3.60
2019-05-23T17:53:16.410Z,4.07
2019-05-23T17:55:46.662Z,4.97
2019-05-23T17:58:17.521Z,11.00
2019-05-23T18:00:47.996Z,10.70
2019-05-23T18:03:17.257Z,5.40
2019-05-23T18:05:46.223Z,5.33
2019-05-23T18:08:16.365Z,4.33
2019-05-23T18:10:46.211Z,3.73
2019-05-23T18:13:16.709Z,4.10
2019-05-23T18:15:46.289Z,6.07
2019-05-23T18:18:15.419Z,2.80
2019-05-23T18:20:44.377Z,3.17
2019-05-23T18:23:13.917Z,3.20
2019-05-23T18:25:43.206Z,3.57
2019-05-23T18:28:13.913Z,3.33
2019-05-23T18:30:47.849Z,3.50
2019-05-23T18:33:18.292Z,3.00
2019-05-23T18:35:47.840Z,3.53
2019-05-23T18:38:17.060Z,4.23
2019-05-23T18:41:01.729Z,4.80
2019-05-23T18:43:17.322Z,4.47
2019-05-23T18:45:47.923Z,3.73
2019-05-23T18:48:16.926Z,5.10
2019-05-23T18:50:46.243Z,3.07
2019-05-23T18:53:15.233Z,4.90
2019-05-23T18:55:44.992Z,3.70
2019-05-23T18:58:13.936Z,5.73
2019-05-23T19:00:52.327Z,5.17
2019-05-23T19:03:21.535Z,4.00
2019-05-23T19:05:50.928Z,5.07
2019-05-23T19:08:20.232Z,4.43
2019-05-23T19:10:51.599Z,3.57
2019-05-23T19:13:20.635Z,2.90
2019-05-23T19:15:49.730Z,3.93
2019-05-23T19:18:19.089Z,2.57
2019-05-23T19:20:48.264Z,2.77
2019-05-23T19:23:17.383Z,3.70
2019-05-23T19:25:46.464Z,3.20
2019-05-23T19:28:15.779Z,2.73
2019-05-23T19:30:44.993Z,3.33
2019-05-23T19:33:14.068Z,2.60
2019-05-23T19:35:42.958Z,2.40
2019-05-23T19:38:12.771Z,2.17
2019-05-23T19:40:47.966Z,2.70
2019-05-23T19:43:17.896Z,3.33
2019-05-23T19:45:47.307Z,2.30
2019-05-23T19:48:16.456Z,3.07
2019-05-23T19:50:45.312Z,2.40
2019-05-23T19:53:14.285Z,2.87
2019-05-23T19:55:43.167Z,3.33
2019-05-23T19:58:12.904Z,3.83
2019-05-23T20:00:42.181Z,13.23
2019-05-23T20:03:11.811Z,23.40
2019-05-23T20:05:42.319Z,10.47
2019-05-23T20:08:11.650Z,5.60
2019-05-23T20:10:46.372Z,3.83
2019-05-23T20:13:18.401Z,7.30
2019-05-23T20:15:46.208Z,5.23
2019-05-23T20:18:16.338Z,6.27
2019-05-23T20:20:45.206Z,3.73
2019-05-23T20:23:16.024Z,4.30
2019-05-23T20:25:45.528Z,5.67
2019-05-23T20:28:14.569Z,5.83
2019-05-23T20:30:46.377Z,5.33
2019-05-23T20:33:15.996Z,5.30
2019-05-23T20:35:44.902Z,5.10
2019-05-23T20:38:13.926Z,8.87
2019-05-23T20:40:43.601Z,5.87
2019-05-23T20:43:12.608Z,4.63
2019-05-23T20:45:41.568Z,4.60
2019-05-23T20:48:10.885Z,5.63
2019-05-23T20:50:39.741Z,8.50
2019-05-23T20:53:08.797Z,6.57
2019-05-23T20:55:37.760Z,5.60
2019-05-23T20:58:06.753Z,6.57
2019-05-23T21:00:42.794Z,4.80
2019-05-23T21:03:11.677Z,5.53
2019-05-23T21:05:41.006Z,5.17
2019-05-23T21:08:09.977Z,6.60
2019-05-23T21:10:44.948Z,5.10
2019-05-23T21:13:14.027Z,5.40
2019-05-23T21:15:42.919Z,5.40
2019-05-23T21:18:12.145Z,5.73
2019-05-23T21:20:41.206Z,5.13
2019-05-23T21:23:13.456Z,5.33
2019-05-23T21:25:44.106Z,6.17
2019-05-23T21:28:12.893Z,7.13
2019-05-23T21:30:41.887Z,6.80
2019-05-23T21:33:10.778Z,6.43
2019-05-23T21:35:39.644Z,6.43
2019-05-23T21:38:08.559Z,8.00
2019-05-23T21:40:42.342Z,7.53
2019-05-23T21:43:11.517Z,6.63
2019-05-23T21:45:41.132Z,6.63
2019-05-23T21:48:10.034Z,7.80
2019-05-23T21:50:38.808Z,8.27
2019-05-23T21:53:08.601Z,6.37
2019-05-23T21:55:39.175Z,7.23
2019-05-23T21:58:09.066Z,6.97
2019-05-23T22:01:00.597Z,8.50
2019-05-23T22:03:31.023Z,6.57
2019-05-23T22:05:59.794Z,7.80
2019-05-23T22:08:28.776Z,10.97
2019-05-23T22:10:57.650Z,9.20
2019-05-23T22:13:26.800Z,10.53
2019-05-23T22:16:00.525Z,8.63
2019-05-23T22:18:29.510Z,8.97
2019-05-23T22:20:58.280Z,9.90
2019-05-23T22:23:27.121Z,9.23
2019-05-23T22:25:55.903Z,9.20
2019-05-23T22:28:24.840Z,9.87
2019-05-23T22:30:53.723Z,10.93
2019-05-23T22:33:29.953Z,9.47
2019-05-23T22:36:00.416Z,9.97
2019-05-23T22:41:08.571Z,10.00
2019-05-23T22:43:37.324Z,10.60
2019-05-23T22:46:06.223Z,10.33
2019-05-23T22:48:35.141Z,10.53
2019-05-23T22:51:03.920Z,10.30
2019-05-23T22:53:32.823Z,10.27
2019-05-23T22:56:01.685Z,10.13
2019-05-23T22:58:30.472Z,8.57
2019-05-23T23:00:59.372Z,8.40
2019-05-23T23:03:28.279Z,8.63
2019-05-23T23:05:57.250Z,10.47
2019-05-23T23:08:27.676Z,8.57
2019-05-23T23:10:56.590Z,11.13
2019-05-23T23:13:38.362Z,12.17
2019-05-23T23:15:56.929Z,11.77
2019-05-23T23:18:25.727Z,10.23
2019-05-23T23:20:54.710Z,9.87
2019-05-23T23:23:23.597Z,12.03
2019-05-23T23:25:52.592Z,11.03
2019-05-23T23:28:21.360Z,12.50
2019-05-23T23:30:51.116Z,12.73
2019-05-23T23:33:20.056Z,11.67
2019-05-23T23:35:48.958Z,10.77
2019-05-23T23:38:17.762Z,11.93
2019-05-23T23:40:46.651Z,13.10
2019-05-23T23:43:15.515Z,12.80
2019-05-23T23:46:02.561Z,13.83
2019-05-23T23:48:49.364Z,16.23
2019-05-23T23:51:36.279Z,16.97
2019-05-23T23:54:23.089Z,16.37
2019-05-23T23:57:10.517Z,16.80
2019-05-23T23:59:44.420Z,16.13
